Array
(
    [0] => p
    [1] => TAF-100
)
- (Beta) English বাংলা

**সমুদ্র বন্দর এবং উপকূলীয় এলাকার জন্য কোন সতর্ক বার্তা নেই।*  ফোন: +৮৮০ ২ ৯১৩৫৭৪২, ৯১২৩৮৩৮, ৯১৪১৪৩৭ | ফ্যাক্স: +৮৮০-২-৯১১৯২৩০, ৫৮১৫২০১৯ | ই-মেইল: info@bmd.gov.bd , swc@bmd.gov.bd   | IVR: ১০৯০ **

ট্যাফ

TAF VGHS 232300Z 2400/2506 00000KT 2000 BR SCT012  TEMPO 2400/2403 00000KT 1200 BR SCT010
  BECMG 2403/2405 33005KT 3000 HZ FEW012 BECMG 2407/2409 35005KT 4000 HZ FEW015
  BECMG 2420/2422 VRB03KT 3000 HZ NSC  BECMG 2423/2501 00000KT 1500 BR SCT010
  BECMG 2503/2505 VRB03KT 3000 HZ NSC


TAF VGEG 232300Z 2400/2506 00000KT 3000 BR SCT016
  BECMG 2403/2405 34008KT 4000 HZ FEW018
  BECMG 2418/2420 00000KT 3000 HZ/BR SCT016
  BECMG 2503/2505 32006KT 4000 HZ NSC

TAF VGSY 240400Z 2406/2512 11005KT 4500HZ FEW015 BECMG 2418/2420 00000KT 3000HZ FEW015 BECMG 2423/2501 00000KT 2500BR SCT012 BECMG 2501/2503 00000KT 3000HZ NSC BECMG 2503/2505 09005KT 4000HZ FEW015=